Terminal Aerodrome Forecast
Issued by NWS

Home | Current Version | Previous Version | Text Only | Print | Product List | Glossary On
Versions: 1 2 3 4 5 6 7 8 9 10 11 12 13 14 15 16 17 18 19 20 21 22 23 24
000
FTUS44 KMAF 111100
TAFPEQ
TAF
KPEQ 111121Z 1112/1212 09009KT P6SM SKC
     FM111600 11015G22KT P6SM SCT050 SCT250
     FM120400 13012KT P6SM BKN080=

USA.gov is the U.S. government's official web portal to all federal, state and local government web resources and services.